createdAt,value
2023-05-10T00:00:03.959Z,30.80
2023-05-10T00:01:04.008Z,30.83
2023-05-10T00:02:04.145Z,30.81
2023-05-10T00:03:04.175Z,30.81
2023-05-10T00:04:04.225Z,30.81
2023-05-10T00:05:04.211Z,30.81
2023-05-10T00:06:04.266Z,30.83
2023-05-10T00:07:04.322Z,30.83
2023-05-10T00:08:04.357Z,30.83
2023-05-10T00:09:04.437Z,30.82
2023-05-10T00:10:04.459Z,30.81
2023-05-10T00:11:04.501Z,30.80
2023-05-10T00:12:04.559Z,30.81
2023-05-10T00:13:04.642Z,30.81
2023-05-10T00:14:04.657Z,30.83
2023-05-10T00:15:04.712Z,30.85
2023-05-10T00:16:04.794Z,30.84
2023-05-10T00:17:04.815Z,30.84
2023-05-10T00:18:04.880Z,30.85
2023-05-10T00:19:04.925Z,30.84
2023-05-10T00:20:04.970Z,30.85
2023-05-10T00:21:05.015Z,30.86
2023-05-10T00:22:05.056Z,30.85
2023-05-10T00:23:05.146Z,30.87
2023-05-10T00:24:05.154Z,30.88
2023-05-10T00:25:05.199Z,30.87
2023-05-10T00:26:05.242Z,30.89
2023-05-10T00:27:05.290Z,30.87
2023-05-10T00:28:05.371Z,30.88
2023-05-10T00:29:05.396Z,30.89
2023-05-10T00:30:05.457Z,30.90
2023-05-10T00:31:05.514Z,30.89
2023-05-10T00:32:05.632Z,30.89
2023-05-10T00:33:05.651Z,30.92
2023-05-10T00:34:05.652Z,30.92
2023-05-10T00:35:05.698Z,30.93
2023-05-10T00:36:05.744Z,30.91
2023-05-10T00:37:05.793Z,30.94
2023-05-10T00:38:05.851Z,30.93
2023-05-10T00:39:05.901Z,30.93
2023-05-10T00:40:05.932Z,30.92
2023-05-10T00:41:05.995Z,30.94
2023-05-10T00:42:06.061Z,30.94
2023-05-10T00:43:06.090Z,30.95
2023-05-10T00:44:06.131Z,30.93
2023-05-10T00:45:06.183Z,30.94
2023-05-10T00:46:06.246Z,30.92
2023-05-10T00:47:06.277Z,30.95
2023-05-10T00:48:06.331Z,30.95
2023-05-10T00:49:06.369Z,30.94
2023-05-10T00:50:06.426Z,30.96
2023-05-10T00:51:06.474Z,30.96
2023-05-10T00:52:06.519Z,30.96
2023-05-10T00:53:06.574Z,30.95
2023-05-10T00:54:06.638Z,30.94
2023-05-10T00:55:06.699Z,30.98
2023-05-10T00:56:06.730Z,30.95
2023-05-10T00:57:06.818Z,30.97
2023-05-10T00:58:06.840Z,30.97
2023-05-10T00:59:06.901Z,30.97
2023-05-10T01:00:06.973Z,30.97
2023-05-10T01:01:07.023Z,30.97
2023-05-10T01:02:07.092Z,30.97
2023-05-10T01:03:07.274Z,31.00
2023-05-10T01:04:07.176Z,30.99
2023-05-10T01:05:07.232Z,30.99
2023-05-10T01:06:07.285Z,30.99
2023-05-10T01:07:07.342Z,30.99
2023-05-10T01:08:07.401Z,30.99
2023-05-10T01:09:07.466Z,30.98
2023-05-10T01:10:07.526Z,31.01
2023-05-10T01:11:07.589Z,31.00
2023-05-10T01:12:07.658Z,31.01
2023-05-10T01:13:07.721Z,30.98
2023-05-10T01:14:07.783Z,31.01
2023-05-10T01:15:07.804Z,31.02
2023-05-10T01:16:07.960Z,31.02
2023-05-10T01:17:07.908Z,31.01
2023-05-10T01:18:07.968Z,31.03
2023-05-10T01:19:08.027Z,31.03
2023-05-10T01:20:08.084Z,31.02
2023-05-10T01:21:08.132Z,31.02
2023-05-10T01:22:08.194Z,31.02
2023-05-10T01:23:08.250Z,31.02
2023-05-10T01:24:08.318Z,31.03
2023-05-10T01:25:08.375Z,31.03
2023-05-10T01:26:08.432Z,31.01
2023-05-10T01:27:08.531Z,31.02
2023-05-10T01:28:08.543Z,31.02
2023-05-10T01:29:08.642Z,31.05
2023-05-10T01:30:14.655Z,31.04
2023-05-10T01:31:09.689Z,31.06
2023-05-10T01:32:08.669Z,31.03
2023-05-10T01:33:08.714Z,31.05
2023-05-10T01:34:08.724Z,31.03
2023-05-10T01:35:08.709Z,31.05
2023-05-10T01:36:08.718Z,31.05
2023-05-10T01:37:08.736Z,31.06
2023-05-10T01:38:08.744Z,31.06
2023-05-10T01:39:08.785Z,31.04
2023-05-10T01:40:08.778Z,31.06
2023-05-10T01:41:08.799Z,31.05
2023-05-10T01:42:08.830Z,31.05
2023-05-10T01:43:08.807Z,31.06
2023-05-10T01:44:08.852Z,31.05
2023-05-10T01:45:08.842Z,31.06
2023-05-10T01:46:08.905Z,31.06
2023-05-10T01:47:08.914Z,31.06
2023-05-10T01:48:08.979Z,31.05
2023-05-10T01:49:09.016Z,31.07
2023-05-10T01:50:09.065Z,31.08
2023-05-10T01:51:09.121Z,31.07
2023-05-10T01:52:09.183Z,31.06
2023-05-10T01:53:09.229Z,31.08
2023-05-10T01:54:09.304Z,31.07
2023-05-10T01:55:09.336Z,31.07
2023-05-10T01:56:09.382Z,31.07
2023-05-10T01:57:09.449Z,31.06
2023-05-10T01:58:09.493Z,31.11
2023-05-10T01:59:09.569Z,31.07
2023-05-10T02:00:09.615Z,31.07
2023-05-10T02:01:09.722Z,31.08
2023-05-10T02:02:09.721Z,31.08
2023-05-10T02:03:09.941Z,31.08
2023-05-10T02:04:09.925Z,31.08
2023-05-10T02:05:09.887Z,31.11
2023-05-10T02:06:09.938Z,31.10
2023-05-10T02:07:09.996Z,31.11
2023-05-10T02:08:10.051Z,31.11
2023-05-10T02:09:10.125Z,31.10
2023-05-10T02:10:10.118Z,31.10
2023-05-10T02:11:10.113Z,31.12
2023-05-10T02:12:10.128Z,31.15
2023-05-10T02:13:10.194Z,31.12
2023-05-10T02:14:10.158Z,31.13
2023-05-10T02:15:10.172Z,31.11
2023-05-10T02:16:10.197Z,31.11
2023-05-10T02:17:10.191Z,31.12
2023-05-10T02:18:10.233Z,31.13
2023-05-10T02:19:10.217Z,31.12
2023-05-10T02:20:10.220Z,31.10
2023-05-10T02:21:10.240Z,31.10
2023-05-10T02:22:10.231Z,31.11
2023-05-10T02:23:10.257Z,31.11
2023-05-10T02:24:10.338Z,31.13
2023-05-10T02:25:10.383Z,31.12
2023-05-10T02:26:10.444Z,31.15
2023-05-10T02:27:10.496Z,31.14
2023-05-10T02:28:10.555Z,31.15
2023-05-10T02:29:10.615Z,31.13
2023-05-10T02:30:10.654Z,31.14
2023-05-10T02:31:10.729Z,31.13
2023-05-10T02:32:10.917Z,31.15
2023-05-10T02:33:10.829Z,31.13
2023-05-10T02:34:10.897Z,31.15
2023-05-10T02:35:10.952Z,31.13
2023-05-10T02:36:11.006Z,31.16
2023-05-10T02:37:11.087Z,31.16
2023-05-10T02:38:11.130Z,31.14
2023-05-10T02:39:11.207Z,31.16
2023-05-10T02:40:11.251Z,31.16
2023-05-10T02:41:11.326Z,31.16
2023-05-10T02:42:11.389Z,31.15
2023-05-10T02:43:11.442Z,31.16
2023-05-10T02:44:11.520Z,31.17
2023-05-10T02:45:11.569Z,31.14
2023-05-10T02:46:11.667Z,31.17
2023-05-10T02:47:11.696Z,31.17
2023-05-10T02:48:11.782Z,31.15
2023-05-10T02:49:11.831Z,31.16
2023-05-10T02:50:11.897Z,31.18
2023-05-10T02:51:11.953Z,31.16
2023-05-10T02:52:12.019Z,31.17
2023-05-10T02:53:12.065Z,31.18
2023-05-10T02:54:12.113Z,31.19
2023-05-10T02:55:12.166Z,31.15
2023-05-10T02:56:12.249Z,31.17
2023-05-10T02:57:12.290Z,31.20
2023-05-10T02:58:12.342Z,31.17
2023-05-10T02:59:12.419Z,31.19
2023-05-10T03:00:12.458Z,31.01
2023-05-10T03:01:12.550Z,30.87
2023-05-10T03:02:12.570Z,30.80
2023-05-10T03:03:12.628Z,30.79
2023-05-10T03:04:12.677Z,30.72
2023-05-10T03:05:12.648Z,30.79
2023-05-10T03:06:12.650Z,30.88
2023-05-10T03:07:12.671Z,30.97
2023-05-10T03:08:12.669Z,31.02
2023-05-10T03:09:12.687Z,31.03
2023-05-10T03:10:12.696Z,31.03
2023-05-10T03:11:12.707Z,31.10
2023-05-10T03:12:12.723Z,31.24
2023-05-10T03:13:12.830Z,31.36
2023-05-10T03:14:12.822Z,31.37
2023-05-10T03:15:12.888Z,31.50
2023-05-10T03:16:12.987Z,31.57
2023-05-10T03:17:13.042Z,31.61
2023-05-10T03:18:13.093Z,31.67
2023-05-10T03:19:13.162Z,31.65
2023-05-10T03:20:13.242Z,31.66
2023-05-10T03:21:13.303Z,31.67
2023-05-10T03:22:13.392Z,31.70
2023-05-10T03:23:13.403Z,31.72
2023-05-10T03:24:13.445Z,31.74
2023-05-10T03:25:13.463Z,31.79
2023-05-10T03:26:13.500Z,31.84
2023-05-10T03:27:13.536Z,31.87
2023-05-10T03:28:13.548Z,31.88
2023-05-10T03:29:13.574Z,31.92
2023-05-10T03:30:13.631Z,31.96
2023-05-10T03:31:13.747Z,31.95
2023-05-10T03:32:13.663Z,31.96
2023-05-10T03:33:13.713Z,32.07
2023-05-10T03:34:13.730Z,32.02
2023-05-10T03:35:13.773Z,32.08
2023-05-10T03:36:13.797Z,32.12
2023-05-10T03:37:13.849Z,32.12
2023-05-10T03:38:13.876Z,32.21
2023-05-10T03:39:13.910Z,32.24
2023-05-10T03:40:14.039Z,32.25
2023-05-10T03:41:13.990Z,32.27
2023-05-10T03:42:14.025Z,32.31
2023-05-10T03:43:14.061Z,32.32
2023-05-10T03:44:14.110Z,32.37
2023-05-10T03:45:14.147Z,32.44
2023-05-10T03:46:14.210Z,32.48
2023-05-10T03:47:14.226Z,32.44
2023-05-10T03:48:14.328Z,32.44
2023-05-10T03:49:14.359Z,32.42
2023-05-10T03:50:14.438Z,32.41
2023-05-10T03:51:14.428Z,32.44
2023-05-10T03:52:14.446Z,32.44
2023-05-10T03:53:14.496Z,32.41
2023-05-10T03:54:14.516Z,32.43
2023-05-10T03:55:14.546Z,32.42
2023-05-10T03:56:14.587Z,32.47
2023-05-10T03:57:14.610Z,32.49
2023-05-10T03:58:14.648Z,32.47
2023-05-10T03:59:14.682Z,32.56
2023-05-10T04:00:14.921Z,32.57
2023-05-10T04:01:14.750Z,32.54
2023-05-10T04:02:14.808Z,32.57
2023-05-10T04:03:14.924Z,32.58
2023-05-10T04:04:14.884Z,32.59
2023-05-10T04:05:14.878Z,32.62
2023-05-10T04:06:14.947Z,32.66
2023-05-10T04:07:14.953Z,32.67
2023-05-10T04:08:14.984Z,32.73
2023-05-10T04:09:15.020Z,32.72
2023-05-10T04:10:15.164Z,32.73
2023-05-10T04:11:15.085Z,32.79
2023-05-10T04:12:15.115Z,32.80
2023-05-10T04:13:15.199Z,32.90
2023-05-10T04:14:15.202Z,32.89
2023-05-10T04:15:15.219Z,32.93
2023-05-10T04:16:15.289Z,32.96
2023-05-10T04:17:15.385Z,33.00
2023-05-10T04:18:15.345Z,33.01
2023-05-10T04:19:15.389Z,33.03
2023-05-10T04:20:15.536Z,33.06
2023-05-10T04:21:15.488Z,33.09
2023-05-10T04:22:15.500Z,33.11
2023-05-10T04:23:15.530Z,33.13
2023-05-10T04:24:15.572Z,33.15
2023-05-10T04:25:15.610Z,33.19
2023-05-10T04:26:15.640Z,33.23
2023-05-10T04:27:15.661Z,33.29
2023-05-10T04:28:15.698Z,33.27
2023-05-10T04:29:15.746Z,33.28
2023-05-10T04:30:15.997Z,33.30
2023-05-10T04:31:15.824Z,33.34
2023-05-10T04:32:15.848Z,33.34
2023-05-10T04:33:15.875Z,33.37
2023-05-10T04:34:15.924Z,33.36
2023-05-10T04:35:15.985Z,33.35
2023-05-10T04:36:15.986Z,33.39
2023-05-10T04:37:16.028Z,33.31
2023-05-10T04:38:16.064Z,33.28
2023-05-10T04:39:16.087Z,33.23
2023-05-10T04:40:16.267Z,33.18
2023-05-10T04:41:16.132Z,33.14
2023-05-10T04:42:16.164Z,33.09
2023-05-10T04:43:16.223Z,33.11
2023-05-10T04:44:16.228Z,33.10
2023-05-10T04:45:16.243Z,33.05
2023-05-10T04:46:16.368Z,32.97
2023-05-10T04:47:16.301Z,32.95
2023-05-10T04:48:16.343Z,32.91
2023-05-10T04:49:16.367Z,32.90
2023-05-10T04:50:16.595Z,32.82
2023-05-10T04:51:16.431Z,32.80
2023-05-10T04:52:16.447Z,32.75
2023-05-10T04:53:16.464Z,32.69
2023-05-10T04:54:16.489Z,32.68
2023-05-10T04:55:16.523Z,32.66
2023-05-10T04:56:16.533Z,32.65
2023-05-10T04:57:16.569Z,32.64
2023-05-10T04:58:16.576Z,32.65
2023-05-10T04:59:16.614Z,32.64
2023-05-10T05:00:16.788Z,32.64
2023-05-10T05:01:16.648Z,32.63
2023-05-10T05:02:16.654Z,32.61
2023-05-10T05:03:16.751Z,32.56
2023-05-10T05:04:16.699Z,32.57
2023-05-10T05:05:16.715Z,32.54
2023-05-10T05:06:16.763Z,32.53
2023-05-10T05:07:16.771Z,32.54
2023-05-10T05:08:16.768Z,32.52
2023-05-10T05:09:16.791Z,32.45
2023-05-10T05:10:17.072Z,32.47
2023-05-10T05:11:16.894Z,32.48
2023-05-10T05:12:16.916Z,32.54
2023-05-10T05:13:16.975Z,32.60
2023-05-10T05:14:17.024Z,32.64
2023-05-10T05:15:17.031Z,32.64
2023-05-10T05:16:17.059Z,32.72
2023-05-10T05:17:17.084Z,32.76
2023-05-10T05:18:17.124Z,32.82
2023-05-10T05:19:17.166Z,32.89
2023-05-10T05:20:17.631Z,32.92
2023-05-10T05:21:17.255Z,32.93
2023-05-10T05:22:19.474Z,32.96
2023-05-10T05:23:17.365Z,32.98
2023-05-10T05:24:17.417Z,33.04
2023-05-10T05:25:17.406Z,33.02
2023-05-10T05:26:17.432Z,33.02
2023-05-10T05:27:17.462Z,32.97
2023-05-10T05:28:17.478Z,32.97
2023-05-10T05:29:17.533Z,32.93
2023-05-10T05:30:17.684Z,32.90
2023-05-10T05:31:17.619Z,32.95
2023-05-10T05:32:17.592Z,32.90
2023-05-10T05:33:17.635Z,32.89
2023-05-10T05:34:17.622Z,32.84
2023-05-10T05:35:17.857Z,32.93
2023-05-10T05:36:17.696Z,32.95
2023-05-10T05:37:17.708Z,32.93
2023-05-10T05:38:17.760Z,33.11
2023-05-10T05:39:17.778Z,33.31
2023-05-10T05:40:17.767Z,33.66
2023-05-10T05:41:17.822Z,33.56
2023-05-10T05:42:17.799Z,33.58
2023-05-10T05:43:17.802Z,33.73
2023-05-10T05:44:17.836Z,34.04
2023-05-10T05:45:18.218Z,34.22
2023-05-10T05:46:17.898Z,34.56
2023-05-10T05:47:17.881Z,34.48
2023-05-10T05:48:17.894Z,34.41
2023-05-10T05:49:17.923Z,34.47
2023-05-10T05:50:17.921Z,34.51
2023-05-10T05:51:17.956Z,35.02
2023-05-10T05:52:17.962Z,35.07
2023-05-10T05:53:18.106Z,34.68
2023-05-10T05:54:18.111Z,34.71
2023-05-10T05:55:18.228Z,34.66
2023-05-10T05:56:18.104Z,34.68
2023-05-10T05:57:18.147Z,34.67
2023-05-10T05:58:18.172Z,34.32
2023-05-10T05:59:18.206Z,34.36
2023-05-10T06:00:18.219Z,34.43
2023-05-10T06:01:18.316Z,34.48
2023-05-10T06:02:18.302Z,34.45
2023-05-10T06:03:18.391Z,34.57
2023-05-10T06:05:18.555Z,34.59
2023-05-10T06:06:18.392Z,34.35
2023-05-10T06:07:18.423Z,34.03
2023-05-10T06:08:18.459Z,33.88
2023-05-10T06:09:18.476Z,33.89
2023-05-10T06:10:18.495Z,33.98
2023-05-10T06:11:18.535Z,34.35
2023-05-10T06:12:18.575Z,34.32
2023-05-10T06:13:18.653Z,34.46
2023-05-10T06:14:18.715Z,34.51
2023-05-10T06:15:18.909Z,34.45
2023-05-10T06:16:18.893Z,34.47
2023-05-10T06:17:18.953Z,34.51
2023-05-10T06:18:19.027Z,34.63
2023-05-10T06:19:19.256Z,34.67
2023-05-10T06:20:19.185Z,34.66
2023-05-10T06:21:19.270Z,34.56
2023-05-10T06:22:19.304Z,34.58
2023-05-10T06:23:19.336Z,34.64
2023-05-10T06:24:19.391Z,34.55
2023-05-10T06:25:19.542Z,34.44
2023-05-10T06:26:19.461Z,34.35
2023-05-10T06:27:19.500Z,34.44
2023-05-10T06:28:19.534Z,34.56
2023-05-10T06:29:19.594Z,34.65
2023-05-10T06:30:19.601Z,34.54
2023-05-10T06:31:19.695Z,34.59
2023-05-10T06:32:19.692Z,34.58
2023-05-10T06:33:19.727Z,34.69
2023-05-10T06:34:19.786Z,34.64
2023-05-10T06:35:19.939Z,34.69
2023-05-10T06:36:19.852Z,34.54
2023-05-10T06:37:19.906Z,34.55
2023-05-10T06:38:19.979Z,34.50
2023-05-10T06:39:19.999Z,34.50
2023-05-10T06:40:20.027Z,34.40
2023-05-10T06:41:20.442Z,34.45
2023-05-10T06:42:20.103Z,34.55
2023-05-10T06:43:20.169Z,35.03
2023-05-10T06:44:20.193Z,35.17
2023-05-10T06:45:20.367Z,34.91
2023-05-10T06:46:20.300Z,35.06
2023-05-10T06:47:20.311Z,35.01
2023-05-10T06:48:20.423Z,34.69
2023-05-10T06:49:20.398Z,34.67
2023-05-10T06:50:20.514Z,34.62
2023-05-10T06:51:20.578Z,34.59
2023-05-10T06:52:20.655Z,34.64
2023-05-10T06:53:20.767Z,34.61
2023-05-10T06:54:20.835Z,34.55
2023-05-10T06:55:20.943Z,34.45
2023-05-10T06:56:21.023Z,34.21
2023-05-10T06:57:31.429Z,34.37
2023-05-10T06:58:22.171Z,34.45
2023-05-10T06:59:21.202Z,34.50
2023-05-10T07:00:21.525Z,34.43
2023-05-10T07:01:21.323Z,34.28
2023-05-10T07:02:21.376Z,34.40
2023-05-10T07:03:21.362Z,34.48
2023-05-10T07:04:21.387Z,34.43
2023-05-10T07:05:21.583Z,34.38
2023-05-10T07:06:32.285Z,34.39
2023-05-10T07:07:22.451Z,34.52
2023-05-10T07:08:21.491Z,34.46
2023-05-10T07:09:21.537Z,34.59
2023-05-10T07:10:21.567Z,34.62
2023-05-10T07:11:21.632Z,34.79
2023-05-10T07:12:21.685Z,34.68
2023-05-10T07:13:21.827Z,34.86
2023-05-10T07:14:21.713Z,34.79
2023-05-10T07:15:21.752Z,34.73
2023-05-10T07:16:21.796Z,34.74
2023-05-10T07:17:21.852Z,34.69
2023-05-10T07:18:21.938Z,34.58
2023-05-10T07:19:21.905Z,34.58
2023-05-10T07:20:22.029Z,34.67
2023-05-10T07:21:22.045Z,34.77
2023-05-10T07:22:22.013Z,34.85
2023-05-10T07:23:22.049Z,34.74
2023-05-10T07:24:22.102Z,34.84
2023-05-10T07:25:22.146Z,34.78
2023-05-10T07:26:22.179Z,34.88
2023-05-10T07:27:22.265Z,34.86
2023-05-10T07:28:22.285Z,34.83
2023-05-10T07:29:22.315Z,34.77
2023-05-10T07:30:22.386Z,34.73
2023-05-10T07:31:22.394Z,34.76
2023-05-10T07:32:22.545Z,34.67
2023-05-10T07:33:22.520Z,34.73
2023-05-10T07:34:22.505Z,34.80
2023-05-10T07:35:22.564Z,34.81
2023-05-10T07:36:22.589Z,34.87
2023-05-10T07:37:22.662Z,34.78
2023-05-10T07:38:22.700Z,34.70
2023-05-10T07:39:27.101Z,35.09
2023-05-10T07:40:23.854Z,34.91
2023-05-10T07:41:22.851Z,35.08
2023-05-10T07:42:22.881Z,34.99
2023-05-10T07:43:22.911Z,34.95
2023-05-10T07:44:22.942Z,34.92
2023-05-10T07:45:22.979Z,34.82
2023-05-10T07:46:23.117Z,34.66
2023-05-10T07:47:23.056Z,34.42
2023-05-10T07:48:23.079Z,34.33
2023-05-10T07:49:23.089Z,34.23
2023-05-10T07:50:23.124Z,34.15
2023-05-10T07:51:23.170Z,34.08
2023-05-10T07:52:23.182Z,34.05
2023-05-10T07:53:23.213Z,34.00
2023-05-10T07:54:23.250Z,33.94
2023-05-10T07:55:23.311Z,33.91
2023-05-10T07:56:23.325Z,33.88
2023-05-10T07:57:23.350Z,33.83
2023-05-10T07:58:23.390Z,33.89
2023-05-10T07:59:23.433Z,33.84
2023-05-10T08:00:23.509Z,33.83
2023-05-10T08:01:23.574Z,33.83
2023-05-10T08:02:23.698Z,33.77
2023-05-10T08:03:23.794Z,33.73
2023-05-10T08:04:23.813Z,33.76
2023-05-10T08:05:23.812Z,33.75
2023-05-10T08:06:23.839Z,33.72
2023-05-10T08:07:23.873Z,33.72
2023-05-10T08:08:23.902Z,33.70
2023-05-10T08:09:23.928Z,33.70
2023-05-10T08:10:23.975Z,33.69
2023-05-10T08:11:24.027Z,33.67
2023-05-10T08:12:24.023Z,33.64
2023-05-10T08:13:24.062Z,33.57
2023-05-10T08:14:24.088Z,33.55
2023-05-10T08:15:24.166Z,33.52
2023-05-10T08:16:24.186Z,33.51
2023-05-10T08:17:24.780Z,33.52
2023-05-10T08:18:24.217Z,33.54
2023-05-10T08:19:24.225Z,33.54
2023-05-10T08:20:24.247Z,33.55
2023-05-10T08:21:24.284Z,33.54
2023-05-10T08:22:24.300Z,33.54
2023-05-10T08:23:24.335Z,33.49
2023-05-10T08:24:24.367Z,33.48
2023-05-10T08:25:24.391Z,33.51
2023-05-10T08:26:24.414Z,33.53
2023-05-10T08:27:24.433Z,33.48
2023-05-10T08:28:24.481Z,33.46
2023-05-10T08:29:25.374Z,33.45
2023-05-10T08:30:24.527Z,33.46
2023-05-10T08:31:24.587Z,33.51
2023-05-10T08:32:24.628Z,33.48
2023-05-10T08:33:24.597Z,33.51
2023-05-10T08:34:25.036Z,33.47
2023-05-10T08:35:24.648Z,33.65
2023-05-10T08:36:24.664Z,33.76
2023-05-10T08:37:24.715Z,33.63
2023-05-10T08:38:24.696Z,33.82
2023-05-10T08:39:30.316Z,33.96
2023-05-10T08:40:25.783Z,34.04
2023-05-10T08:41:24.764Z,33.98
2023-05-10T08:42:24.777Z,33.97
2023-05-10T08:43:24.811Z,34.06
2023-05-10T08:44:24.813Z,34.11
2023-05-10T08:45:24.839Z,34.15
2023-05-10T08:46:24.901Z,34.37
2023-05-10T08:47:24.909Z,34.39
2023-05-10T08:48:24.924Z,34.53
2023-05-10T08:49:24.907Z,34.77
2023-05-10T08:50:24.930Z,34.76
2023-05-10T08:51:24.937Z,34.73
2023-05-10T08:52:24.949Z,34.98
2023-05-10T08:53:24.972Z,35.10
2023-05-10T08:54:24.986Z,35.27
2023-05-10T08:55:25.009Z,35.13
2023-05-10T08:56:25.059Z,35.17
2023-05-10T08:57:25.057Z,35.29
2023-05-10T08:58:25.065Z,35.40
2023-05-10T08:59:25.095Z,35.35
2023-05-10T09:00:25.119Z,35.41
2023-05-10T09:01:25.227Z,35.45
2023-05-10T09:02:25.166Z,35.48
2023-05-10T09:03:25.202Z,35.45
2023-05-10T09:04:25.319Z,35.55
2023-05-10T09:05:25.294Z,35.82
2023-05-10T09:06:25.220Z,35.80
2023-05-10T09:07:25.266Z,35.92
2023-05-10T09:08:25.365Z,35.88
2023-05-10T09:09:25.439Z,35.90
2023-05-10T09:10:25.535Z,35.87
2023-05-10T09:11:25.610Z,35.87
2023-05-10T09:12:25.714Z,35.86
2023-05-10T09:13:25.798Z,35.94
2023-05-10T09:14:25.956Z,36.13
2023-05-10T09:15:25.961Z,36.03
2023-05-10T09:16:26.130Z,36.12
2023-05-10T09:17:26.258Z,35.97
2023-05-10T09:18:28.054Z,36.04
2023-05-10T09:19:26.289Z,36.08
2023-05-10T09:20:26.389Z,36.05
2023-05-10T09:21:26.470Z,36.08
2023-05-10T09:22:26.556Z,36.18
2023-05-10T09:23:26.649Z,36.15
2023-05-10T09:24:26.717Z,36.07
2023-05-10T09:25:26.791Z,36.23
2023-05-10T09:26:26.860Z,36.08
2023-05-10T09:27:26.945Z,35.75
2023-05-10T09:28:27.014Z,35.58
2023-05-10T09:29:27.112Z,35.38
2023-05-10T09:30:27.181Z,35.67
2023-05-10T09:31:27.404Z,35.73
2023-05-10T09:32:27.378Z,35.67
2023-05-10T09:33:27.426Z,35.69
2023-05-10T09:34:27.522Z,35.61
2023-05-10T09:35:29.451Z,35.49
2023-05-10T09:36:27.541Z,35.40
2023-05-10T09:37:27.575Z,35.30
2023-05-10T09:38:27.645Z,35.26
2023-05-10T09:39:27.740Z,35.15
2023-05-10T09:40:27.804Z,35.01
2023-05-10T09:41:27.880Z,34.95
2023-05-10T09:42:27.886Z,35.05
2023-05-10T09:43:27.918Z,34.75
2023-05-10T09:44:27.941Z,34.69
2023-05-10T09:45:27.942Z,34.68
2023-05-10T09:46:28.006Z,34.78
2023-05-10T09:47:28.046Z,34.46
2023-05-10T09:48:27.973Z,34.34
2023-05-10T09:49:28.006Z,34.27
2023-05-10T09:50:27.996Z,34.19
2023-05-10T09:51:28.037Z,34.28
2023-05-10T09:52:28.037Z,34.35
2023-05-10T09:53:28.066Z,34.20
2023-05-10T09:54:28.084Z,34.12
2023-05-10T09:55:28.181Z,34.10
2023-05-10T09:56:28.258Z,33.93
2023-05-10T09:57:28.341Z,33.89
2023-05-10T09:58:28.397Z,33.82
2023-05-10T09:59:28.490Z,34.10
2023-05-10T10:00:28.564Z,33.97
2023-05-10T10:01:28.659Z,34.00
2023-05-10T10:02:28.679Z,34.02
2023-05-10T10:03:30.270Z,34.01
2023-05-10T10:04:28.766Z,34.00
2023-05-10T10:05:28.739Z,33.98
2023-05-10T10:06:30.358Z,33.91
2023-05-10T10:07:28.778Z,33.73
2023-05-10T10:08:28.813Z,33.75
2023-05-10T10:09:28.838Z,33.80
2023-05-10T10:10:28.937Z,33.91
2023-05-10T10:11:28.886Z,33.93
2023-05-10T10:12:28.956Z,33.89
2023-05-10T10:13:29.028Z,33.97
2023-05-10T10:14:29.104Z,33.97
2023-05-10T10:15:29.249Z,33.87
2023-05-10T10:16:29.292Z,33.77
2023-05-10T10:17:29.359Z,33.83
2023-05-10T10:18:29.364Z,33.81
2023-05-10T10:19:29.351Z,33.87
2023-05-10T10:20:29.386Z,33.79
2023-05-10T10:21:29.405Z,33.65
2023-05-10T10:23:48.497Z,33.76
2023-05-10T10:24:48.504Z,33.72
2023-05-10T10:25:48.495Z,33.82
2023-05-10T10:26:48.490Z,33.89
2023-05-10T10:27:48.499Z,33.93
2023-05-10T10:28:48.497Z,33.91
2023-05-10T10:29:48.499Z,33.88
2023-05-10T10:30:48.510Z,33.86
2023-05-10T10:31:48.560Z,33.86
2023-05-10T10:32:48.514Z,33.78
2023-05-10T10:33:48.571Z,33.81
2023-05-10T10:34:48.511Z,33.84
2023-05-10T10:35:48.539Z,33.90
2023-05-10T10:36:48.513Z,33.96
2023-05-10T10:37:48.534Z,33.93
2023-05-10T10:38:48.528Z,34.10
2023-05-10T10:39:48.513Z,33.94
2023-05-10T10:40:48.539Z,33.86
2023-05-10T10:41:48.547Z,33.80
2023-05-10T10:42:48.551Z,33.97
2023-05-10T10:43:48.564Z,33.73
2023-05-10T10:44:48.553Z,33.58
2023-05-10T10:45:48.577Z,33.89
2023-05-10T10:46:48.621Z,33.94
2023-05-10T10:47:48.599Z,34.10
2023-05-10T10:48:48.577Z,33.99
2023-05-10T10:49:48.578Z,34.00
2023-05-10T10:50:48.590Z,34.00
2023-05-10T10:51:48.587Z,34.06
2023-05-10T10:52:48.624Z,34.04
2023-05-10T10:53:48.619Z,33.93
2023-05-10T10:54:48.613Z,33.87
2023-05-10T10:55:48.646Z,33.77
2023-05-10T10:56:48.649Z,33.69
2023-05-10T10:57:48.673Z,33.85
2023-05-10T10:58:48.688Z,33.82
2023-05-10T10:59:48.704Z,33.89
2023-05-10T11:00:48.742Z,33.94
2023-05-10T11:01:48.706Z,34.09
2023-05-10T11:02:48.737Z,34.07
2023-05-10T11:03:48.739Z,34.08
2023-05-10T11:04:48.763Z,33.97
2023-05-10T11:05:48.752Z,33.75
2023-05-10T11:06:48.746Z,33.81
2023-05-10T11:07:48.762Z,33.59
2023-05-10T11:08:48.771Z,34.16
2023-05-10T11:09:48.778Z,33.63
2023-05-10T11:10:48.786Z,33.65
2023-05-10T11:11:48.817Z,33.78
2023-05-10T11:12:48.796Z,33.63
2023-05-10T11:13:50.852Z,33.48
2023-05-10T11:14:49.028Z,33.55
2023-05-10T11:15:49.114Z,33.42
2023-05-10T11:16:49.132Z,33.30
2023-05-10T11:17:49.216Z,33.39
2023-05-10T11:18:50.341Z,33.71
2023-05-10T11:19:49.215Z,33.46
2023-05-10T11:20:49.227Z,33.71
2023-05-10T11:21:49.312Z,33.78
2023-05-10T11:22:49.337Z,33.78
2023-05-10T11:23:49.304Z,33.88
2023-05-10T11:24:50.209Z,33.84
2023-05-10T11:25:49.372Z,33.43
2023-05-10T11:26:49.376Z,33.26
2023-05-10T11:27:49.384Z,33.08
2023-05-10T11:28:49.400Z,32.94
2023-05-10T11:29:49.401Z,32.71
2023-05-10T11:30:49.479Z,32.59
2023-05-10T11:31:49.500Z,32.51
2023-05-10T11:32:49.449Z,32.43
2023-05-10T11:33:49.429Z,32.44
2023-05-10T11:34:49.425Z,32.36
2023-05-10T11:35:49.438Z,32.21
2023-05-10T11:36:49.458Z,32.13
2023-05-10T11:37:49.461Z,32.05
2023-05-10T11:38:49.484Z,32.00
2023-05-10T11:39:49.492Z,31.99
2023-05-10T11:40:49.505Z,32.03
2023-05-10T11:41:49.509Z,32.05
2023-05-10T11:42:49.540Z,32.60
2023-05-10T11:43:49.546Z,32.62
2023-05-10T11:44:49.540Z,32.70
2023-05-10T11:45:49.585Z,32.74
2023-05-10T11:46:49.642Z,32.62
2023-05-10T11:47:49.620Z,32.51
2023-05-10T11:48:49.584Z,32.50
2023-05-10T11:49:49.589Z,32.51
2023-05-10T11:50:49.597Z,32.55
2023-05-10T11:51:49.614Z,32.51
2023-05-10T11:52:49.610Z,32.63
2023-05-10T11:53:49.625Z,32.63
2023-05-10T11:54:49.627Z,32.71
2023-05-10T11:55:49.630Z,32.67
2023-05-10T11:56:49.629Z,32.64
2023-05-10T11:57:49.635Z,32.50
2023-05-10T11:58:49.650Z,32.56
2023-05-10T11:59:49.656Z,32.59
2023-05-10T12:00:49.684Z,32.55
2023-05-10T12:01:49.674Z,32.51
2023-05-10T12:02:49.830Z,32.55
2023-05-10T12:03:49.770Z,32.57
2023-05-10T12:04:49.740Z,32.61
2023-05-10T12:05:49.714Z,32.67
2023-05-10T12:06:49.727Z,32.76
2023-05-10T12:07:49.729Z,32.86
2023-05-10T12:08:49.735Z,32.96
2023-05-10T12:09:49.751Z,33.12
2023-05-10T12:10:49.766Z,33.08
2023-05-10T12:11:49.772Z,33.20
2023-05-10T12:12:49.805Z,33.28
2023-05-10T12:13:49.798Z,33.42
2023-05-10T12:14:49.806Z,33.47
2023-05-10T12:15:49.800Z,33.46
2023-05-10T12:16:49.830Z,33.51
2023-05-10T12:17:49.884Z,33.52
2023-05-10T12:18:49.959Z,33.59
2023-05-10T12:19:49.834Z,33.58
2023-05-10T12:20:49.826Z,33.58
2023-05-10T12:21:49.841Z,33.57
2023-05-10T12:22:49.838Z,33.67
2023-05-10T12:23:49.844Z,33.71
2023-05-10T12:24:49.851Z,33.74
2023-05-10T12:25:49.850Z,33.73
2023-05-10T12:26:49.851Z,33.60
2023-05-10T12:27:49.856Z,33.58
2023-05-10T12:28:49.859Z,33.57
2023-05-10T12:29:49.893Z,33.61
2023-05-10T12:30:49.876Z,33.60
2023-05-10T12:31:49.909Z,33.61
2023-05-10T12:32:49.908Z,33.60
2023-05-10T12:33:49.903Z,33.80
2023-05-10T12:34:49.905Z,34.04
2023-05-10T12:35:49.893Z,33.98
2023-05-10T12:36:49.889Z,34.23
2023-05-10T12:37:49.890Z,34.36
2023-05-10T12:38:49.900Z,34.56
2023-05-10T12:39:49.900Z,34.71
2023-05-10T12:40:49.929Z,34.94
2023-05-10T12:41:49.896Z,35.23
2023-05-10T12:42:50.032Z,35.47
2023-05-10T12:43:49.888Z,34.54
2023-05-10T12:44:49.881Z,33.38
2023-05-10T12:45:49.965Z,32.71
2023-05-10T12:46:49.905Z,33.04
2023-05-10T12:47:49.937Z,33.51
2023-05-10T12:48:53.225Z,33.26
2023-05-10T12:49:49.965Z,33.33
2023-05-10T12:50:49.962Z,33.20
2023-05-10T12:51:49.988Z,33.69
2023-05-10T12:52:50.005Z,33.69
2023-05-10T12:53:50.016Z,33.62
2023-05-10T12:54:50.048Z,33.69